sensor_id;sensor_type;location;lat;lon;timestamp;P1;durP1;ratioP1;P2;durP2;ratioP2
2602;SDS011;1311;47.966;7.958;2022-08-03T00:00:55;1.57;;;1.47;;
2602;SDS011;1311;47.966;7.958;2022-08-03T00:03:22;2.30;;;1.33;;
2602;SDS011;1311;47.966;7.958;2022-08-03T00:05:48;1.40;;;1.20;;
2602;SDS011;1311;47.966;7.958;2022-08-03T00:08:17;1.50;;;1.40;;
2602;SDS011;1311;47.966;7.958;2022-08-03T00:10:44;1.70;;;1.50;;
2602;SDS011;1311;47.966;7.958;2022-08-03T00:13:10;1.70;;;1.30;;
2602;SDS011;1311;47.966;7.958;2022-08-03T00:15:38;1.57;;;1.30;;
2602;SDS011;1311;47.966;7.958;2022-08-03T00:18:05;1.60;;;1.50;;
2602;SDS011;1311;47.966;7.958;2022-08-03T00:20:32;2.00;;;1.70;;
2602;SDS011;1311;47.966;7.958;2022-08-03T00:22:59;1.70;;;1.60;;
2602;SDS011;1311;47.966;7.958;2022-08-03T00:25:28;1.60;;;1.50;;
2602;SDS011;1311;47.966;7.958;2022-08-03T00:27:55;1.50;;;1.40;;
2602;SDS011;1311;47.966;7.958;2022-08-03T00:30:22;1.40;;;1.30;;
2602;SDS011;1311;47.966;7.958;2022-08-03T00:32:48;1.77;;;1.50;;
2602;SDS011;1311;47.966;7.958;2022-08-03T00:35:15;1.30;;;1.20;;
2602;SDS011;1311;47.966;7.958;2022-08-03T00:37:42;1.50;;;1.40;;
2602;SDS011;1311;47.966;7.958;2022-08-03T00:40:10;1.97;;;1.37;;
2602;SDS011;1311;47.966;7.958;2022-08-03T00:42:52;1.73;;;1.40;;
2602;SDS011;1311;47.966;7.958;2022-08-03T00:45:21;2.43;;;1.57;;
2602;SDS011;1311;47.966;7.958;2022-08-03T00:47:48;1.23;;;1.13;;
2602;SDS011;1311;47.966;7.958;2022-08-03T00:50:16;1.73;;;1.57;;
2602;SDS011;1311;47.966;7.958;2022-08-03T00:52:47;1.83;;;1.70;;
2602;SDS011;1311;47.966;7.958;2022-08-03T00:55:14;2.00;;;1.50;;
2602;SDS011;1311;47.966;7.958;2022-08-03T00:57:41;1.50;;;1.40;;
2602;SDS011;1311;47.966;7.958;2022-08-03T01:00:11;1.53;;;1.37;;
2602;SDS011;1311;47.966;7.958;2022-08-03T01:02:39;1.60;;;1.50;;
2602;SDS011;1311;47.966;7.958;2022-08-03T01:05:07;1.53;;;1.40;;
2602;SDS011;1311;47.966;7.958;2022-08-03T01:07:36;1.57;;;1.20;;
2602;SDS011;1311;47.966;7.958;2022-08-03T01:10:12;1.40;;;1.10;;
2602;SDS011;1311;47.966;7.958;2022-08-03T01:12:47;1.53;;;1.20;;
2602;SDS011;1311;47.966;7.958;2022-08-03T01:15:23;1.50;;;1.40;;
2602;SDS011;1311;47.966;7.958;2022-08-03T01:17:55;1.47;;;1.30;;
2602;SDS011;1311;47.966;7.958;2022-08-03T01:20:23;1.63;;;1.40;;
2602;SDS011;1311;47.966;7.958;2022-08-03T01:23:09;1.30;;;1.20;;
2602;SDS011;1311;47.966;7.958;2022-08-03T01:25:58;2.77;;;1.10;;
2602;SDS011;1311;47.966;7.958;2022-08-03T01:28:38;2.13;;;1.50;;
2602;SDS011;1311;47.966;7.958;2022-08-03T01:31:24;1.77;;;1.37;;
2602;SDS011;1311;47.966;7.958;2022-08-03T01:33:59;1.40;;;1.30;;
2602;SDS011;1311;47.966;7.958;2022-08-03T01:36:29;1.60;;;1.50;;
2602;SDS011;1311;47.966;7.958;2022-08-03T01:38:59;1.97;;;1.77;;
2602;SDS011;1311;47.966;7.958;2022-08-03T01:41:34;1.47;;;1.30;;
2602;SDS011;1311;47.966;7.958;2022-08-03T01:44:03;2.10;;;1.90;;
2602;SDS011;1311;47.966;7.958;2022-08-03T01:46:35;2.40;;;1.60;;
2602;SDS011;1311;47.966;7.958;2022-08-03T01:49:05;1.50;;;1.40;;
2602;SDS011;1311;47.966;7.958;2022-08-03T01:51:35;1.90;;;1.70;;
2602;SDS011;1311;47.966;7.958;2022-08-03T01:54:04;1.97;;;1.63;;
2602;SDS011;1311;47.966;7.958;2022-08-03T01:56:33;2.37;;;1.80;;
2602;SDS011;1311;47.966;7.958;2022-08-03T01:59:01;2.00;;;1.80;;
2602;SDS011;1311;47.966;7.958;2022-08-03T02:01:29;2.20;;;1.93;;
2602;SDS011;1311;47.966;7.958;2022-08-03T02:03:58;2.23;;;2.00;;
2602;SDS011;1311;47.966;7.958;2022-08-03T02:06:27;2.40;;;1.90;;
2602;SDS011;1311;47.966;7.958;2022-08-03T02:08:57;2.10;;;1.90;;
2602;SDS011;1311;47.966;7.958;2022-08-03T02:11:25;2.10;;;1.90;;
2602;SDS011;1311;47.966;7.958;2022-08-03T02:13:53;2.40;;;2.20;;
2602;SDS011;1311;47.966;7.958;2022-08-03T02:16:21;2.20;;;1.87;;
2602;SDS011;1311;47.966;7.958;2022-08-03T02:18:51;1.40;;;1.30;;
2602;SDS011;1311;47.966;7.958;2022-08-03T02:21:21;1.70;;;1.60;;
2602;SDS011;1311;47.966;7.958;2022-08-03T02:23:48;2.00;;;1.80;;
2602;SDS011;1311;47.966;7.958;2022-08-03T02:26:16;2.83;;;2.20;;
2602;SDS011;1311;47.966;7.958;2022-08-03T02:28:46;2.47;;;2.20;;
2602;SDS011;1311;47.966;7.958;2022-08-03T02:31:15;2.73;;;2.20;;
2602;SDS011;1311;47.966;7.958;2022-08-03T02:33:47;2.03;;;1.93;;
2602;SDS011;1311;47.966;7.958;2022-08-03T02:36:17;3.00;;;2.00;;
2602;SDS011;1311;47.966;7.958;2022-08-03T02:38:48;2.73;;;2.10;;
2602;SDS011;1311;47.966;7.958;2022-08-03T02:41:20;2.20;;;1.93;;
2602;SDS011;1311;47.966;7.958;2022-08-03T02:43:50;2.10;;;1.90;;
2602;SDS011;1311;47.966;7.958;2022-08-03T02:46:21;2.40;;;2.20;;
2602;SDS011;1311;47.966;7.958;2022-08-03T02:48:51;2.70;;;2.43;;
2602;SDS011;1311;47.966;7.958;2022-08-03T02:51:20;2.37;;;2.17;;
2602;SDS011;1311;47.966;7.958;2022-08-03T02:53:50;1.60;;;1.50;;
2602;SDS011;1311;47.966;7.958;2022-08-03T02:56:18;2.47;;;2.27;;
2602;SDS011;1311;47.966;7.958;2022-08-03T02:58:47;4.00;;;2.20;;
2602;SDS011;1311;47.966;7.958;2022-08-03T03:01:15;2.37;;;2.13;;
2602;SDS011;1311;47.966;7.958;2022-08-03T03:03:45;2.40;;;2.10;;
2602;SDS011;1311;47.966;7.958;2022-08-03T03:06:13;3.03;;;2.50;;
2602;SDS011;1311;47.966;7.958;2022-08-03T03:08:41;2.07;;;1.97;;
2602;SDS011;1311;47.966;7.958;2022-08-03T03:11:10;2.93;;;2.40;;
2602;SDS011;1311;47.966;7.958;2022-08-03T03:13:39;2.20;;;2.00;;
2602;SDS011;1311;47.966;7.958;2022-08-03T03:16:07;2.60;;;2.30;;
2602;SDS011;1311;47.966;7.958;2022-08-03T03:18:35;2.23;;;1.80;;
2602;SDS011;1311;47.966;7.958;2022-08-03T03:21:03;1.83;;;1.63;;
2602;SDS011;1311;47.966;7.958;2022-08-03T03:23:30;2.07;;;1.73;;
2602;SDS011;1311;47.966;7.958;2022-08-03T03:26:00;1.97;;;1.83;;
2602;SDS011;1311;47.966;7.958;2022-08-03T03:28:31;3.20;;;2.17;;
2602;SDS011;1311;47.966;7.958;2022-08-03T03:31:01;2.60;;;2.40;;
2602;SDS011;1311;47.966;7.958;2022-08-03T03:33:29;3.80;;;2.03;;
2602;SDS011;1311;47.966;7.958;2022-08-03T03:35:56;2.30;;;2.10;;
2602;SDS011;1311;47.966;7.958;2022-08-03T03:38:23;2.20;;;2.00;;
2602;SDS011;1311;47.966;7.958;2022-08-03T03:40:50;2.23;;;2.03;;
2602;SDS011;1311;47.966;7.958;2022-08-03T03:43:17;2.60;;;2.17;;
2602;SDS011;1311;47.966;7.958;2022-08-03T03:45:45;2.77;;;1.80;;
2602;SDS011;1311;47.966;7.958;2022-08-03T03:48:12;2.40;;;2.20;;
2602;SDS011;1311;47.966;7.958;2022-08-03T03:50:39;2.90;;;2.40;;
2602;SDS011;1311;47.966;7.958;2022-08-03T03:53:08;3.67;;;2.37;;
2602;SDS011;1311;47.966;7.958;2022-08-03T03:55:36;2.60;;;2.40;;
2602;SDS011;1311;47.966;7.958;2022-08-03T03:58:04;2.40;;;2.20;;
2602;SDS011;1311;47.966;7.958;2022-08-03T04:00:31;2.40;;;1.97;;
2602;SDS011;1311;47.966;7.958;2022-08-03T04:03:00;2.93;;;2.27;;
2602;SDS011;1311;47.966;7.958;2022-08-03T04:05:27;2.50;;;2.30;;
2602;SDS011;1311;47.966;7.958;2022-08-03T04:08:11;2.10;;;1.90;;
2602;SDS011;1311;47.966;7.958;2022-08-03T04:11:01;2.10;;;1.90;;
2602;SDS011;1311;47.966;7.958;2022-08-03T04:13:33;2.00;;;1.80;;
2602;SDS011;1311;47.966;7.958;2022-08-03T04:16:03;2.30;;;2.10;;
2602;SDS011;1311;47.966;7.958;2022-08-03T04:18:33;1.60;;;1.50;;
2602;SDS011;1311;47.966;7.958;2022-08-03T04:21:01;2.97;;;1.67;;
2602;SDS011;1311;47.966;7.958;2022-08-03T04:23:32;2.37;;;1.83;;
2602;SDS011;1311;47.966;7.958;2022-08-03T04:26:00;1.67;;;1.57;;
2602;SDS011;1311;47.966;7.958;2022-08-03T04:28:29;2.20;;;1.97;;
2602;SDS011;1311;47.966;7.958;2022-08-03T04:30:58;2.30;;;2.10;;
2602;SDS011;1311;47.966;7.958;2022-08-03T04:33:26;2.63;;;2.00;;
2602;SDS011;1311;47.966;7.958;2022-08-03T04:35:56;1.87;;;1.67;;
2602;SDS011;1311;47.966;7.958;2022-08-03T04:38:24;1.77;;;1.67;;
2602;SDS011;1311;47.966;7.958;2022-08-03T04:40:52;2.03;;;1.83;;
2602;SDS011;1311;47.966;7.958;2022-08-03T04:43:21;4.20;;;2.20;;
2602;SDS011;1311;47.966;7.958;2022-08-03T04:45:49;2.43;;;2.10;;
2602;SDS011;1311;47.966;7.958;2022-08-03T04:48:17;3.63;;;2.63;;
2602;SDS011;1311;47.966;7.958;2022-08-03T04:50:45;3.27;;;2.50;;
2602;SDS011;1311;47.966;7.958;2022-08-03T04:53:13;5.17;;;3.30;;
2602;SDS011;1311;47.966;7.958;2022-08-03T04:55:42;4.00;;;2.97;;
2602;SDS011;1311;47.966;7.958;2022-08-03T04:58:09;2.90;;;2.60;;
2602;SDS011;1311;47.966;7.958;2022-08-03T05:00:36;3.67;;;3.27;;
2602;SDS011;1311;47.966;7.958;2022-08-03T05:03:03;4.00;;;3.10;;
2602;SDS011;1311;47.966;7.958;2022-08-03T05:05:30;5.97;;;2.97;;
2602;SDS011;1311;47.966;7.958;2022-08-03T05:07:57;3.90;;;2.90;;
2602;SDS011;1311;47.966;7.958;2022-08-03T05:10:25;3.00;;;2.70;;
2602;SDS011;1311;47.966;7.958;2022-08-03T05:12:51;3.20;;;2.63;;
2602;SDS011;1311;47.966;7.958;2022-08-03T05:15:18;2.80;;;2.60;;
2602;SDS011;1311;47.966;7.958;2022-08-03T05:17:45;2.40;;;2.20;;
2602;SDS011;1311;47.966;7.958;2022-08-03T05:20:13;2.50;;;2.17;;
2602;SDS011;1311;47.966;7.958;2022-08-03T05:22:39;2.97;;;2.50;;
2602;SDS011;1311;47.966;7.958;2022-08-03T05:25:06;2.70;;;2.33;;
2602;SDS011;1311;47.966;7.958;2022-08-03T05:27:34;3.97;;;2.40;;
2602;SDS011;1311;47.966;7.958;2022-08-03T05:30:01;2.93;;;2.00;;
2602;SDS011;1311;47.966;7.958;2022-08-03T05:32:29;2.73;;;2.53;;
2602;SDS011;1311;47.966;7.958;2022-08-03T05:34:56;2.53;;;2.10;;
2602;SDS011;1311;47.966;7.958;2022-08-03T05:37:23;2.00;;;1.90;;
2602;SDS011;1311;47.966;7.958;2022-08-03T05:39:50;2.33;;;2.13;;
2602;SDS011;1311;47.966;7.958;2022-08-03T05:42:17;2.30;;;2.10;;
2602;SDS011;1311;47.966;7.958;2022-08-03T05:44:45;2.57;;;2.37;;
2602;SDS011;1311;47.966;7.958;2022-08-03T05:47:11;2.10;;;2.00;;
2602;SDS011;1311;47.966;7.958;2022-08-03T05:49:38;2.10;;;1.80;;
2602;SDS011;1311;47.966;7.958;2022-08-03T05:52:05;2.10;;;2.00;;
2602;SDS011;1311;47.966;7.958;2022-08-03T05:54:31;2.53;;;1.77;;
2602;SDS011;1311;47.966;7.958;2022-08-03T05:56:58;2.00;;;1.80;;
2602;SDS011;1311;47.966;7.958;2022-08-03T05:59:25;2.17;;;1.97;;
2602;SDS011;1311;47.966;7.958;2022-08-03T06:01:53;2.50;;;2.30;;
2602;SDS011;1311;47.966;7.958;2022-08-03T06:04:20;2.40;;;2.20;;
2602;SDS011;1311;47.966;7.958;2022-08-03T06:06:47;1.97;;;1.87;;
2602;SDS011;1311;47.966;7.958;2022-08-03T06:09:14;2.10;;;1.90;;
2602;SDS011;1311;47.966;7.958;2022-08-03T06:11:41;2.10;;;2.00;;
2602;SDS011;1311;47.966;7.958;2022-08-03T06:14:08;1.97;;;1.83;;
2602;SDS011;1311;47.966;7.958;2022-08-03T06:16:35;2.20;;;2.00;;
2602;SDS011;1311;47.966;7.958;2022-08-03T06:19:03;2.10;;;2.00;;
2602;SDS011;1311;47.966;7.958;2022-08-03T06:21:30;2.50;;;2.30;;
2602;SDS011;1311;47.966;7.958;2022-08-03T06:23:56;2.10;;;2.00;;
2602;SDS011;1311;47.966;7.958;2022-08-03T06:26:23;2.20;;;2.00;;
2602;SDS011;1311;47.966;7.958;2022-08-03T06:28:52;2.50;;;2.30;;
2602;SDS011;1311;47.966;7.958;2022-08-03T06:31:19;1.87;;;1.77;;
2602;SDS011;1311;47.966;7.958;2022-08-03T06:33:46;2.50;;;2.30;;
2602;SDS011;1311;47.966;7.958;2022-08-03T06:36:14;2.53;;;2.27;;
2602;SDS011;1311;47.966;7.958;2022-08-03T06:38:41;2.50;;;2.30;;
2602;SDS011;1311;47.966;7.958;2022-08-03T06:41:08;2.10;;;1.90;;
2602;SDS011;1311;47.966;7.958;2022-08-03T06:43:35;2.13;;;1.93;;
2602;SDS011;1311;47.966;7.958;2022-08-03T06:46:02;2.67;;;2.23;;
2602;SDS011;1311;47.966;7.958;2022-08-03T06:48:29;2.70;;;2.27;;
2602;SDS011;1311;47.966;7.958;2022-08-03T06:50:56;2.17;;;1.97;;
2602;SDS011;1311;47.966;7.958;2022-08-03T06:53:24;3.67;;;2.93;;
2602;SDS011;1311;47.966;7.958;2022-08-03T06:55:51;2.60;;;2.40;;
2602;SDS011;1311;47.966;7.958;2022-08-03T06:58:18;2.50;;;2.30;;
2602;SDS011;1311;47.966;7.958;2022-08-03T07:00:45;3.20;;;2.00;;
2602;SDS011;1311;47.966;7.958;2022-08-03T07:03:12;2.20;;;2.00;;
2602;SDS011;1311;47.966;7.958;2022-08-03T07:05:39;2.50;;;2.30;;
2602;SDS011;1311;47.966;7.958;2022-08-03T07:08:07;2.97;;;2.30;;
2602;SDS011;1311;47.966;7.958;2022-08-03T07:10:35;2.20;;;2.00;;
2602;SDS011;1311;47.966;7.958;2022-08-03T07:13:02;2.70;;;2.27;;
2602;SDS011;1311;47.966;7.958;2022-08-03T07:15:29;3.37;;;2.23;;
2602;SDS011;1311;47.966;7.958;2022-08-03T07:17:56;2.20;;;2.00;;
2602;SDS011;1311;47.966;7.958;2022-08-03T07:20:23;2.43;;;2.23;;
2602;SDS011;1311;47.966;7.958;2022-08-03T07:22:50;3.00;;;2.23;;
2602;SDS011;1311;47.966;7.958;2022-08-03T07:25:17;2.50;;;2.03;;
2602;SDS011;1311;47.966;7.958;2022-08-03T07:27:46;2.50;;;2.30;;
2602;SDS011;1311;47.966;7.958;2022-08-03T07:30:14;3.37;;;2.13;;
2602;SDS011;1311;47.966;7.958;2022-08-03T07:32:41;2.30;;;2.10;;
2602;SDS011;1311;47.966;7.958;2022-08-03T07:35:09;3.73;;;1.70;;
2602;SDS011;1311;47.966;7.958;2022-08-03T07:37:36;2.77;;;2.10;;
2602;SDS011;1311;47.966;7.958;2022-08-03T07:40:04;2.50;;;2.30;;
2602;SDS011;1311;47.966;7.958;2022-08-03T07:42:31;2.60;;;2.30;;
2602;SDS011;1311;47.966;7.958;2022-08-03T07:44:59;2.50;;;2.30;;
2602;SDS011;1311;47.966;7.958;2022-08-03T07:47:27;5.03;;;2.30;;
2602;SDS011;1311;47.966;7.958;2022-08-03T07:49:55;2.47;;;2.10;;
2602;SDS011;1311;47.966;7.958;2022-08-03T07:52:22;5.20;;;2.47;;
2602;SDS011;1311;47.966;7.958;2022-08-03T07:55:07;1.80;;;1.70;;
2602;SDS011;1311;47.966;7.958;2022-08-03T07:57:35;2.60;;;2.40;;
2602;SDS011;1311;47.966;7.958;2022-08-03T08:00:04;4.00;;;2.00;;
2602;SDS011;1311;47.966;7.958;2022-08-03T08:02:34;2.57;;;2.37;;
2602;SDS011;1311;47.966;7.958;2022-08-03T08:05:01;2.30;;;2.10;;
2602;SDS011;1311;47.966;7.958;2022-08-03T08:07:27;3.70;;;2.20;;
2602;SDS011;1311;47.966;7.958;2022-08-03T08:09:54;2.83;;;2.50;;
2602;SDS011;1311;47.966;7.958;2022-08-03T08:12:21;2.70;;;2.50;;
2602;SDS011;1311;47.966;7.958;2022-08-03T08:14:48;2.80;;;2.23;;
2602;SDS011;1311;47.966;7.958;2022-08-03T08:17:17;2.60;;;2.37;;
2602;SDS011;1311;47.966;7.958;2022-08-03T08:19:44;2.60;;;2.40;;
2602;SDS011;1311;47.966;7.958;2022-08-03T08:22:11;2.53;;;2.33;;
2602;SDS011;1311;47.966;7.958;2022-08-03T08:24:39;2.93;;;2.50;;
2602;SDS011;1311;47.966;7.958;2022-08-03T08:27:07;3.30;;;2.20;;
2602;SDS011;1311;47.966;7.958;2022-08-03T08:29:36;2.63;;;2.43;;
2602;SDS011;1311;47.966;7.958;2022-08-03T08:32:03;2.53;;;2.10;;
2602;SDS011;1311;47.966;7.958;2022-08-03T08:34:32;2.03;;;1.90;;
2602;SDS011;1311;47.966;7.958;2022-08-03T08:36:58;2.73;;;2.40;;
2602;SDS011;1311;47.966;7.958;2022-08-03T08:39:26;3.00;;;2.50;;
2602;SDS011;1311;47.966;7.958;2022-08-03T08:41:53;2.50;;;2.27;;
2602;SDS011;1311;47.966;7.958;2022-08-03T08:44:19;3.50;;;2.20;;
2602;SDS011;1311;47.966;7.958;2022-08-03T08:46:46;2.27;;;2.07;;
2602;SDS011;1311;47.966;7.958;2022-08-03T08:49:14;2.43;;;2.23;;
2602;SDS011;1311;47.966;7.958;2022-08-03T08:51:44;2.53;;;2.30;;
2602;SDS011;1311;47.966;7.958;2022-08-03T08:54:14;2.20;;;1.90;;
2602;SDS011;1311;47.966;7.958;2022-08-03T08:56:44;3.90;;;2.30;;
2602;SDS011;1311;47.966;7.958;2022-08-03T08:59:11;2.00;;;1.90;;
2602;SDS011;1311;47.966;7.958;2022-08-03T09:01:39;2.70;;;2.50;;
2602;SDS011;1311;47.966;7.958;2022-08-03T09:04:06;4.20;;;1.93;;
2602;SDS011;1311;47.966;7.958;2022-08-03T09:06:33;2.43;;;2.10;;
2602;SDS011;1311;47.966;7.958;2022-08-03T09:09:02;2.00;;;1.87;;
2602;SDS011;1311;47.966;7.958;2022-08-03T09:11:30;2.60;;;1.97;;
2602;SDS011;1311;47.966;7.958;2022-08-03T09:13:57;2.23;;;2.03;;
2602;SDS011;1311;47.966;7.958;2022-08-03T09:16:24;2.20;;;2.00;;
2602;SDS011;1311;47.966;7.958;2022-08-03T09:18:52;2.40;;;2.20;;
2602;SDS011;1311;47.966;7.958;2022-08-03T09:21:20;2.90;;;2.20;;
2602;SDS011;1311;47.966;7.958;2022-08-03T09:23:49;2.83;;;2.37;;
2602;SDS011;1311;47.966;7.958;2022-08-03T09:26:22;2.70;;;2.50;;
2602;SDS011;1311;47.966;7.958;2022-08-03T09:28:53;2.10;;;2.00;;
2602;SDS011;1311;47.966;7.958;2022-08-03T09:31:31;2.63;;;2.43;;
2602;SDS011;1311;47.966;7.958;2022-08-03T09:33:59;2.20;;;2.00;;
2602;SDS011;1311;47.966;7.958;2022-08-03T09:36:34;2.37;;;2.17;;
2602;SDS011;1311;47.966;7.958;2022-08-03T09:39:06;2.43;;;2.23;;
2602;SDS011;1311;47.966;7.958;2022-08-03T09:41:37;2.30;;;2.10;;
2602;SDS011;1311;47.966;7.958;2022-08-03T09:44:04;2.50;;;2.30;;
2602;SDS011;1311;47.966;7.958;2022-08-03T09:46:31;2.50;;;2.30;;
2602;SDS011;1311;47.966;7.958;2022-08-03T09:49:08;2.40;;;1.87;;
2602;SDS011;1311;47.966;7.958;2022-08-03T09:51:36;2.77;;;2.53;;
2602;SDS011;1311;47.966;7.958;2022-08-03T09:54:03;2.83;;;2.63;;
2602;SDS011;1311;47.966;7.958;2022-08-03T09:56:42;2.30;;;2.10;;
2602;SDS011;1311;47.966;7.958;2022-08-03T09:59:11;2.50;;;2.27;;
2602;SDS011;1311;47.966;7.958;2022-08-03T10:01:39;2.93;;;2.63;;
2602;SDS011;1311;47.966;7.958;2022-08-03T10:04:10;2.37;;;2.20;;
2602;SDS011;1311;47.966;7.958;2022-08-03T10:06:42;2.53;;;2.33;;
2602;SDS011;1311;47.966;7.958;2022-08-03T10:09:10;2.60;;;2.40;;
2602;SDS011;1311;47.966;7.958;2022-08-03T10:11:39;3.00;;;2.07;;
2602;SDS011;1311;47.966;7.958;2022-08-03T10:14:08;2.50;;;2.30;;
2602;SDS011;1311;47.966;7.958;2022-08-03T10:16:42;2.50;;;2.30;;
2602;SDS011;1311;47.966;7.958;2022-08-03T10:19:10;3.17;;;2.60;;
2602;SDS011;1311;47.966;7.958;2022-08-03T10:21:40;3.00;;;2.13;;
2602;SDS011;1311;47.966;7.958;2022-08-03T10:24:11;2.77;;;2.57;;
2602;SDS011;1311;47.966;7.958;2022-08-03T10:26:41;3.50;;;2.60;;
2602;SDS011;1311;47.966;7.958;2022-08-03T10:29:11;2.90;;;2.70;;
2602;SDS011;1311;47.966;7.958;2022-08-03T10:31:45;2.73;;;2.53;;
2602;SDS011;1311;47.966;7.958;2022-08-03T10:34:14;13.80;;;1.90;;
2602;SDS011;1311;47.966;7.958;2022-08-03T10:36:44;2.57;;;2.37;;
2602;SDS011;1311;47.966;7.958;2022-08-03T10:39:12;2.90;;;2.60;;
2602;SDS011;1311;47.966;7.958;2022-08-03T10:41:43;2.90;;;2.70;;
2602;SDS011;1311;47.966;7.958;2022-08-03T10:44:14;3.20;;;2.50;;
2602;SDS011;1311;47.966;7.958;2022-08-03T10:46:44;7.10;;;2.30;;
2602;SDS011;1311;47.966;7.958;2022-08-03T10:49:12;5.57;;;5.00;;
2602;SDS011;1311;47.966;7.958;2022-08-03T10:51:40;2.93;;;2.57;;
2602;SDS011;1311;47.966;7.958;2022-08-03T10:54:18;2.73;;;2.27;;
2602;SDS011;1311;47.966;7.958;2022-08-03T10:57:41;2.80;;;2.60;;
2602;SDS011;1311;47.966;7.958;2022-08-03T11:00:13;2.67;;;2.47;;
2602;SDS011;1311;47.966;7.958;2022-08-03T11:05:33;2.80;;;2.60;;
2602;SDS011;1311;47.966;7.958;2022-08-03T11:10:53;2.97;;;2.77;;
2602;SDS011;1311;47.966;7.958;2022-08-03T11:13:22;3.13;;;2.67;;
2602;SDS011;1311;47.966;7.958;2022-08-03T11:15:51;8.13;;;2.60;;
2602;SDS011;1311;47.966;7.958;2022-08-03T11:18:19;2.70;;;2.50;;
2602;SDS011;1311;47.966;7.958;2022-08-03T11:20:47;2.60;;;2.40;;
2602;SDS011;1311;47.966;7.958;2022-08-03T11:23:19;2.50;;;2.30;;
2602;SDS011;1311;47.966;7.958;2022-08-03T11:26:09;3.33;;;2.37;;
2602;SDS011;1311;47.966;7.958;2022-08-03T11:28:37;3.40;;;2.70;;
2602;SDS011;1311;47.966;7.958;2022-08-03T11:34:11;2.67;;;2.47;;
2602;SDS011;1311;47.966;7.958;2022-08-03T11:39:45;3.20;;;2.83;;
2602;SDS011;1311;47.966;7.958;2022-08-03T11:45:09;2.80;;;2.60;;
2602;SDS011;1311;47.966;7.958;2022-08-03T11:47:38;3.63;;;2.80;;
2602;SDS011;1311;47.966;7.958;2022-08-03T11:50:05;2.87;;;2.67;;
2602;SDS011;1311;47.966;7.958;2022-08-03T11:52:33;3.57;;;2.47;;
2602;SDS011;1311;47.966;7.958;2022-08-03T11:55:09;2.87;;;2.60;;
2602;SDS011;1311;47.966;7.958;2022-08-03T11:57:37;3.60;;;2.27;;
2602;SDS011;1311;47.966;7.958;2022-08-03T12:02:59;4.33;;;2.90;;
2602;SDS011;1311;47.966;7.958;2022-08-03T12:05:31;3.93;;;2.57;;
2602;SDS011;1311;47.966;7.958;2022-08-03T12:08:03;2.47;;;2.30;;
2602;SDS011;1311;47.966;7.958;2022-08-03T12:10:30;2.40;;;2.20;;
2602;SDS011;1311;47.966;7.958;2022-08-03T12:12:58;2.60;;;2.40;;
2602;SDS011;1311;47.966;7.958;2022-08-03T12:15:26;2.70;;;2.50;;
2602;SDS011;1311;47.966;7.958;2022-08-03T12:17:54;2.60;;;2.40;;
2602;SDS011;1311;47.966;7.958;2022-08-03T12:20:24;3.10;;;2.73;;
2602;SDS011;1311;47.966;7.958;2022-08-03T12:22:52;2.70;;;2.60;;
2602;SDS011;1311;47.966;7.958;2022-08-03T12:25:19;2.50;;;2.30;;
2602;SDS011;1311;47.966;7.958;2022-08-03T12:27:48;3.13;;;2.67;;
2602;SDS011;1311;47.966;7.958;2022-08-03T12:30:15;2.77;;;2.57;;
2602;SDS011;1311;47.966;7.958;2022-08-03T12:32:43;2.77;;;2.57;;
2602;SDS011;1311;47.966;7.958;2022-08-03T12:35:15;2.80;;;2.60;;
2602;SDS011;1311;47.966;7.958;2022-08-03T12:37:49;2.70;;;2.50;;
2602;SDS011;1311;47.966;7.958;2022-08-03T12:40:23;2.73;;;2.43;;
2602;SDS011;1311;47.966;7.958;2022-08-03T12:42:51;3.47;;;2.83;;
2602;SDS011;1311;47.966;7.958;2022-08-03T12:45:22;2.70;;;2.20;;
2602;SDS011;1311;47.966;7.958;2022-08-03T12:47:53;8.33;;;2.73;;
2602;SDS011;1311;47.966;7.958;2022-08-03T12:50:22;3.10;;;2.80;;
2602;SDS011;1311;47.966;7.958;2022-08-03T12:52:52;2.60;;;2.40;;
2602;SDS011;1311;47.966;7.958;2022-08-03T12:55:20;2.80;;;2.60;;
2602;SDS011;1311;47.966;7.958;2022-08-03T12:57:48;2.27;;;2.17;;
2602;SDS011;1311;47.966;7.958;2022-08-03T13:00:16;2.60;;;2.40;;
2602;SDS011;1311;47.966;7.958;2022-08-03T13:02:44;2.70;;;2.50;;
2602;SDS011;1311;47.966;7.958;2022-08-03T13:05:11;2.60;;;2.40;;
2602;SDS011;1311;47.966;7.958;2022-08-03T13:07:39;2.43;;;2.27;;
2602;SDS011;1311;47.966;7.958;2022-08-03T13:10:08;3.20;;;2.90;;
2602;SDS011;1311;47.966;7.958;2022-08-03T13:12:45;2.80;;;2.60;;
2602;SDS011;1311;47.966;7.958;2022-08-03T13:15:12;2.50;;;2.30;;
2602;SDS011;1311;47.966;7.958;2022-08-03T13:17:39;2.70;;;2.50;;
2602;SDS011;1311;47.966;7.958;2022-08-03T13:20:07;2.80;;;2.60;;
2602;SDS011;1311;47.966;7.958;2022-08-03T13:22:34;3.30;;;2.50;;
2602;SDS011;1311;47.966;7.958;2022-08-03T13:25:01;2.27;;;2.17;;
2602;SDS011;1311;47.966;7.958;2022-08-03T13:27:31;3.13;;;2.53;;
2602;SDS011;1311;47.966;7.958;2022-08-03T13:29:57;3.30;;;3.00;;
2602;SDS011;1311;47.966;7.958;2022-08-03T13:32:24;2.90;;;2.70;;
2602;SDS011;1311;47.966;7.958;2022-08-03T13:34:51;2.67;;;2.37;;
2602;SDS011;1311;47.966;7.958;2022-08-03T13:37:18;2.63;;;2.43;;
2602;SDS011;1311;47.966;7.958;2022-08-03T13:39:44;2.30;;;2.10;;
2602;SDS011;1311;47.966;7.958;2022-08-03T13:42:11;2.43;;;2.33;;
2602;SDS011;1311;47.966;7.958;2022-08-03T13:44:39;3.00;;;2.80;;
2602;SDS011;1311;47.966;7.958;2022-08-03T13:47:06;2.67;;;2.47;;
2602;SDS011;1311;47.966;7.958;2022-08-03T13:49:33;3.13;;;2.20;;
2602;SDS011;1311;47.966;7.958;2022-08-03T13:52:00;2.80;;;2.60;;
2602;SDS011;1311;47.966;7.958;2022-08-03T13:54:27;3.30;;;2.93;;
2602;SDS011;1311;47.966;7.958;2022-08-03T13:56:54;2.93;;;2.73;;
2602;SDS011;1311;47.966;7.958;2022-08-03T13:59:22;2.77;;;2.57;;
2602;SDS011;1311;47.966;7.958;2022-08-03T14:01:51;3.00;;;2.70;;
2602;SDS011;1311;47.966;7.958;2022-08-03T14:04:19;2.80;;;2.60;;
2602;SDS011;1311;47.966;7.958;2022-08-03T14:06:46;2.70;;;2.50;;
2602;SDS011;1311;47.966;7.958;2022-08-03T14:09:13;2.70;;;2.40;;
2602;SDS011;1311;47.966;7.958;2022-08-03T14:11:41;2.87;;;2.40;;
2602;SDS011;1311;47.966;7.958;2022-08-03T14:14:08;2.50;;;2.30;;
2602;SDS011;1311;47.966;7.958;2022-08-03T14:16:35;3.20;;;2.90;;
2602;SDS011;1311;47.966;7.958;2022-08-03T14:19:04;2.97;;;2.77;;
2602;SDS011;1311;47.966;7.958;2022-08-03T14:21:32;2.80;;;2.60;;
2602;SDS011;1311;47.966;7.958;2022-08-03T14:23:59;2.90;;;2.70;;
2602;SDS011;1311;47.966;7.958;2022-08-03T14:26:26;3.30;;;2.60;;
2602;SDS011;1311;47.966;7.958;2022-08-03T14:28:54;2.70;;;2.50;;
2602;SDS011;1311;47.966;7.958;2022-08-03T14:31:21;2.60;;;2.40;;
2602;SDS011;1311;47.966;7.958;2022-08-03T14:33:48;2.50;;;2.40;;
2602;SDS011;1311;47.966;7.958;2022-08-03T14:36:17;2.20;;;2.10;;
2602;SDS011;1311;47.966;7.958;2022-08-03T14:38:43;2.10;;;1.90;;
2602;SDS011;1311;47.966;7.958;2022-08-03T14:41:10;2.20;;;2.00;;
2602;SDS011;1311;47.966;7.958;2022-08-03T14:43:37;2.37;;;2.03;;
2602;SDS011;1311;47.966;7.958;2022-08-03T14:46:04;4.20;;;1.50;;
2602;SDS011;1311;47.966;7.958;2022-08-03T14:48:31;1.97;;;1.57;;
2602;SDS011;1311;47.966;7.958;2022-08-03T14:50:58;1.43;;;1.33;;
2602;SDS011;1311;47.966;7.958;2022-08-03T14:53:27;1.77;;;1.67;;
2602;SDS011;1311;47.966;7.958;2022-08-03T14:55:54;1.83;;;1.73;;
2602;SDS011;1311;47.966;7.958;2022-08-03T14:58:21;1.40;;;1.30;;
2602;SDS011;1311;47.966;7.958;2022-08-03T15:00:52;2.07;;;1.27;;
2602;SDS011;1311;47.966;7.958;2022-08-03T15:03:20;1.20;;;1.10;;
2602;SDS011;1311;47.966;7.958;2022-08-03T15:05:48;1.10;;;1.00;;
2602;SDS011;1311;47.966;7.958;2022-08-03T15:08:15;1.00;;;1.00;;
2602;SDS011;1311;47.966;7.958;2022-08-03T15:10:44;2.50;;;1.10;;
2602;SDS011;1311;47.966;7.958;2022-08-03T15:13:11;1.00;;;1.00;;
2602;SDS011;1311;47.966;7.958;2022-08-03T15:15:38;1.13;;;1.03;;
2602;SDS011;1311;47.966;7.958;2022-08-03T15:18:05;1.30;;;1.20;;
2602;SDS011;1311;47.966;7.958;2022-08-03T15:20:38;1.40;;;1.30;;
2602;SDS011;1311;47.966;7.958;2022-08-03T15:23:06;0.90;;;0.90;;
2602;SDS011;1311;47.966;7.958;2022-08-03T15:25:32;1.20;;;1.00;;
2602;SDS011;1311;47.966;7.958;2022-08-03T15:28:01;1.00;;;0.90;;
2602;SDS011;1311;47.966;7.958;2022-08-03T15:30:28;1.43;;;1.20;;
2602;SDS011;1311;47.966;7.958;2022-08-03T15:32:55;1.20;;;1.10;;
2602;SDS011;1311;47.966;7.958;2022-08-03T15:35:22;1.40;;;1.30;;
2602;SDS011;1311;47.966;7.958;2022-08-03T15:37:49;1.57;;;0.90;;
2602;SDS011;1311;47.966;7.958;2022-08-03T15:40:16;1.03;;;1.03;;
2602;SDS011;1311;47.966;7.958;2022-08-03T15:42:43;1.30;;;1.20;;